sensor_id;sensor_type;location;lat;lon;timestamp;pressure;altitude;pressure_sealevel;temperature;humidity
72896;BME280;61036;53.224;6.554;2024-03-22T00:00:03;100518.09;;;9.58;100.00
72896;BME280;61036;53.224;6.554;2024-03-22T00:02:38;100507.03;;;9.50;100.00
72896;BME280;61036;53.224;6.554;2024-03-22T00:05:04;100510.91;;;9.70;100.00
72896;BME280;61036;53.224;6.554;2024-03-22T00:07:30;100513.94;;;9.65;100.00
72896;BME280;61036;53.224;6.554;2024-03-22T00:09:56;100514.78;;;9.66;100.00
72896;BME280;61036;53.224;6.554;2024-03-22T00:12:21;100505.75;;;9.67;100.00
72896;BME280;61036;53.224;6.554;2024-03-22T00:14:47;100502.13;;;9.79;100.00
72896;BME280;61036;53.224;6.554;2024-03-22T00:17:12;100499.00;;;9.61;100.00
72896;BME280;61036;53.224;6.554;2024-03-22T00:19:38;100504.47;;;9.48;100.00
72896;BME280;61036;53.224;6.554;2024-03-22T00:22:03;100505.09;;;9.52;100.00
72896;BME280;61036;53.224;6.554;2024-03-22T00:24:29;100489.72;;;9.65;100.00
72896;BME280;61036;53.224;6.554;2024-03-22T00:26:54;100490.06;;;9.60;100.00
72896;BME280;61036;53.224;6.554;2024-03-22T00:29:20;100483.72;;;9.61;100.00
72896;BME280;61036;53.224;6.554;2024-03-22T00:31:45;100465.28;;;9.79;100.00
72896;BME280;61036;53.224;6.554;2024-03-22T00:34:10;100468.41;;;9.62;100.00
72896;BME280;61036;53.224;6.554;2024-03-22T00:36:36;100469.59;;;9.47;100.00
72896;BME280;61036;53.224;6.554;2024-03-22T00:39:02;100461.56;;;9.58;100.00
72896;BME280;61036;53.224;6.554;2024-03-22T00:41:28;100456.97;;;9.47;100.00
72896;BME280;61036;53.224;6.554;2024-03-22T00:43:54;100452.72;;;9.56;100.00
72896;BME280;61036;53.224;6.554;2024-03-22T00:46:19;100457.25;;;9.55;100.00
72896;BME280;61036;53.224;6.554;2024-03-22T00:48:45;100454.75;;;9.41;100.00
72896;BME280;61036;53.224;6.554;2024-03-22T00:51:10;100437.19;;;9.48;100.00
72896;BME280;61036;53.224;6.554;2024-03-22T00:53:36;100426.91;;;9.53;100.00
72896;BME280;61036;53.224;6.554;2024-03-22T00:56:01;100425.34;;;9.62;100.00
72896;BME280;61036;53.224;6.554;2024-03-22T00:58:27;100424.97;;;9.55;100.00
72896;BME280;61036;53.224;6.554;2024-03-22T01:00:53;100419.00;;;9.63;100.00
72896;BME280;61036;53.224;6.554;2024-03-22T01:03:19;100427.50;;;9.46;100.00
72896;BME280;61036;53.224;6.554;2024-03-22T01:05:45;100437.66;;;9.42;100.00
72896;BME280;61036;53.224;6.554;2024-03-22T01:08:10;100437.19;;;9.59;100.00
72896;BME280;61036;53.224;6.554;2024-03-22T01:10:36;100443.56;;;9.58;100.00
72896;BME280;61036;53.224;6.554;2024-03-22T01:13:01;100438.06;;;9.71;100.00
72896;BME280;61036;53.224;6.554;2024-03-22T01:15:27;100447.81;;;9.50;100.00
72896;BME280;61036;53.224;6.554;2024-03-22T01:17:53;100453.09;;;9.51;100.00
72896;BME280;61036;53.224;6.554;2024-03-22T01:20:18;100454.00;;;9.63;100.00
72896;BME280;61036;53.224;6.554;2024-03-22T01:22:44;100437.59;;;9.66;100.00
72896;BME280;61036;53.224;6.554;2024-03-22T01:25:09;100435.66;;;9.79;100.00
72896;BME280;61036;53.224;6.554;2024-03-22T01:27:35;100450.03;;;9.56;100.00
72896;BME280;61036;53.224;6.554;2024-03-22T01:30:02;100431.84;;;9.71;100.00
72896;BME280;61036;53.224;6.554;2024-03-22T01:32:27;100429.78;;;9.85;100.00
72896;BME280;61036;53.224;6.554;2024-03-22T01:34:53;100430.91;;;9.94;100.00
72896;BME280;61036;53.224;6.554;2024-03-22T01:37:18;100425.00;;;9.89;100.00
72896;BME280;61036;53.224;6.554;2024-03-22T01:39:43;100421.94;;;9.82;100.00
72896;BME280;61036;53.224;6.554;2024-03-22T01:42:09;100417.78;;;9.90;100.00
72896;BME280;61036;53.224;6.554;2024-03-22T01:44:34;100414.97;;;9.80;100.00
72896;BME280;61036;53.224;6.554;2024-03-22T01:47:00;100425.22;;;9.64;100.00
72896;BME280;61036;53.224;6.554;2024-03-22T01:49:26;100425.13;;;9.76;100.00
72896;BME280;61036;53.224;6.554;2024-03-22T01:51:52;100426.59;;;9.80;100.00
72896;BME280;61036;53.224;6.554;2024-03-22T01:54:19;100423.91;;;9.80;100.00
72896;BME280;61036;53.224;6.554;2024-03-22T01:56:45;100443.97;;;9.76;100.00
72896;BME280;61036;53.224;6.554;2024-03-22T01:59:12;100459.94;;;10.02;100.00
72896;BME280;61036;53.224;6.554;2024-03-22T02:01:38;100468.47;;;9.84;100.00
72896;BME280;61036;53.224;6.554;2024-03-22T02:04:04;100457.34;;;10.00;100.00
72896;BME280;61036;53.224;6.554;2024-03-22T02:06:30;100461.53;;;9.93;100.00
72896;BME280;61036;53.224;6.554;2024-03-22T02:08:57;100459.78;;;9.92;100.00
72896;BME280;61036;53.224;6.554;2024-03-22T02:11:23;100461.88;;;9.89;100.00
72896;BME280;61036;53.224;6.554;2024-03-22T02:13:48;100464.06;;;9.83;100.00
72896;BME280;61036;53.224;6.554;2024-03-22T02:16:14;100466.78;;;9.95;100.00
72896;BME280;61036;53.224;6.554;2024-03-22T02:18:40;100488.78;;;9.89;100.00
72896;BME280;61036;53.224;6.554;2024-03-22T02:21:05;100505.84;;;10.00;100.00
72896;BME280;61036;53.224;6.554;2024-03-22T02:23:34;100507.19;;;10.06;100.00
72896;BME280;61036;53.224;6.554;2024-03-22T02:26:01;100524.19;;;9.95;100.00
72896;BME280;61036;53.224;6.554;2024-03-22T02:28:26;100523.88;;;10.11;100.00
72896;BME280;61036;53.224;6.554;2024-03-22T02:30:52;100519.81;;;10.17;100.00
72896;BME280;61036;53.224;6.554;2024-03-22T02:33:17;100515.66;;;10.13;100.00
72896;BME280;61036;53.224;6.554;2024-03-22T02:35:46;100518.00;;;10.17;100.00
72896;BME280;61036;53.224;6.554;2024-03-22T02:38:11;100512.84;;;10.14;100.00
72896;BME280;61036;53.224;6.554;2024-03-22T02:40:37;100528.00;;;10.04;100.00
72896;BME280;61036;53.224;6.554;2024-03-22T02:43:02;100523.88;;;10.11;100.00
72896;BME280;61036;53.224;6.554;2024-03-22T02:45:30;100550.06;;;10.09;100.00
72896;BME280;61036;53.224;6.554;2024-03-22T02:47:55;100554.22;;;10.13;100.00
72896;BME280;61036;53.224;6.554;2024-03-22T02:50:21;100557.78;;;10.02;100.00
72896;BME280;61036;53.224;6.554;2024-03-22T02:52:48;100566.50;;;10.17;100.00
72896;BME280;61036;53.224;6.554;2024-03-22T02:55:14;100577.28;;;10.17;100.00
72896;BME280;61036;53.224;6.554;2024-03-22T02:57:39;100580.47;;;10.22;100.00
72896;BME280;61036;53.224;6.554;2024-03-22T03:00:05;100571.22;;;10.26;100.00
72896;BME280;61036;53.224;6.554;2024-03-22T03:02:31;100563.41;;;10.11;100.00
72896;BME280;61036;53.224;6.554;2024-03-22T03:04:56;100501.94;;;10.16;100.00
72896;BME280;61036;53.224;6.554;2024-03-22T03:07:24;100484.69;;;10.18;100.00
72896;BME280;61036;53.224;6.554;2024-03-22T03:09:49;100475.59;;;10.19;100.00
72896;BME280;61036;53.224;6.554;2024-03-22T03:12:15;100475.13;;;10.14;100.00
72896;BME280;61036;53.224;6.554;2024-03-22T03:14:40;100471.97;;;10.32;100.00
72896;BME280;61036;53.224;6.554;2024-03-22T03:17:06;100464.28;;;10.27;100.00
72896;BME280;61036;53.224;6.554;2024-03-22T03:19:31;100471.97;;;10.32;100.00
72896;BME280;61036;53.224;6.554;2024-03-22T03:21:57;100470.50;;;10.27;100.00
72896;BME280;61036;53.224;6.554;2024-03-22T03:24:22;100476.75;;;10.28;100.00
72896;BME280;61036;53.224;6.554;2024-03-22T03:26:47;100479.44;;;10.28;100.00
72896;BME280;61036;53.224;6.554;2024-03-22T03:29:13;100473.72;;;10.33;100.00
72896;BME280;61036;53.224;6.554;2024-03-22T03:31:38;100465.22;;;10.37;100.00
72896;BME280;61036;53.224;6.554;2024-03-22T03:34:04;100463.78;;;10.33;100.00
72896;BME280;61036;53.224;6.554;2024-03-22T03:36:29;100475.50;;;10.21;100.00
72896;BME280;61036;53.224;6.554;2024-03-22T03:38:55;100473.31;;;10.26;100.00
72896;BME280;61036;53.224;6.554;2024-03-22T03:41:20;100466.59;;;10.43;100.00
72896;BME280;61036;53.224;6.554;2024-03-22T03:43:46;100463.16;;;10.41;100.00
72896;BME280;61036;53.224;6.554;2024-03-22T03:46:11;100449.31;;;10.45;100.00
72896;BME280;61036;53.224;6.554;2024-03-22T03:48:37;100461.19;;;10.32;100.00
72896;BME280;61036;53.224;6.554;2024-03-22T03:51:02;100463.63;;;10.35;100.00
72896;BME280;61036;53.224;6.554;2024-03-22T03:53:29;100458.75;;;10.40;100.00
72896;BME280;61036;53.224;6.554;2024-03-22T03:55:55;100455.44;;;10.47;100.00
72896;BME280;61036;53.224;6.554;2024-03-22T03:58:20;100453.25;;;10.41;100.00
72896;BME280;61036;53.224;6.554;2024-03-22T04:00:46;100452.75;;;10.36;100.00
72896;BME280;61036;53.224;6.554;2024-03-22T04:03:11;100459.13;;;10.35;100.00
72896;BME280;61036;53.224;6.554;2024-03-22T04:05:37;100458.50;;;10.43;100.00
72896;BME280;61036;53.224;6.554;2024-03-22T04:08:02;100451.16;;;10.34;100.00
72896;BME280;61036;53.224;6.554;2024-03-22T04:10:28;100462.94;;;10.33;100.00
72896;BME280;61036;53.224;6.554;2024-03-22T04:12:53;100445.75;;;10.45;100.00
72896;BME280;61036;53.224;6.554;2024-03-22T04:15:19;100441.22;;;10.45;100.00
72896;BME280;61036;53.224;6.554;2024-03-22T04:17:44;100434.13;;;10.44;100.00
72896;BME280;61036;53.224;6.554;2024-03-22T04:20:10;100422.19;;;10.58;100.00
72896;BME280;61036;53.224;6.554;2024-03-22T04:22:37;100421.16;;;10.38;100.00
72896;BME280;61036;53.224;6.554;2024-03-22T04:25:02;100424.44;;;10.30;100.00
72896;BME280;61036;53.224;6.554;2024-03-22T04:27:28;100428.59;;;10.35;100.00
72896;BME280;61036;53.224;6.554;2024-03-22T04:29:54;100443.66;;;10.26;100.00
72896;BME280;61036;53.224;6.554;2024-03-22T04:32:19;100435.97;;;10.33;100.00
72896;BME280;61036;53.224;6.554;2024-03-22T04:34:45;100430.34;;;10.36;100.00
72896;BME280;61036;53.224;6.554;2024-03-22T04:37:10;100434.13;;;10.33;100.00
72896;BME280;61036;53.224;6.554;2024-03-22T04:39:40;100431.78;;;10.40;100.00
72896;BME280;61036;53.224;6.554;2024-03-22T04:42:06;100431.78;;;10.28;100.00
72896;BME280;61036;53.224;6.554;2024-03-22T04:44:32;100423.06;;;10.25;100.00
72896;BME280;61036;53.224;6.554;2024-03-22T04:46:57;100424.81;;;10.26;100.00
72896;BME280;61036;53.224;6.554;2024-03-22T04:49:23;100416.97;;;10.23;100.00
72896;BME280;61036;53.224;6.554;2024-03-22T04:51:49;100408.75;;;10.24;100.00
72896;BME280;61036;53.224;6.554;2024-03-22T04:54:14;100409.72;;;10.23;100.00
72896;BME280;61036;53.224;6.554;2024-03-22T04:56:40;100406.81;;;10.26;100.00
72896;BME280;61036;53.224;6.554;2024-03-22T04:59:05;100408.41;;;10.29;100.00
72896;BME280;61036;53.224;6.554;2024-03-22T05:01:31;100401.19;;;10.29;100.00
72896;BME280;61036;53.224;6.554;2024-03-22T05:03:56;100388.41;;;10.32;100.00
72896;BME280;61036;53.224;6.554;2024-03-22T05:06:22;100385.97;;;10.28;100.00
72896;BME280;61036;53.224;6.554;2024-03-22T05:08:47;100372.72;;;10.25;100.00
72896;BME280;61036;53.224;6.554;2024-03-22T05:11:13;100398.09;;;10.23;100.00
72896;BME280;61036;53.224;6.554;2024-03-22T05:13:38;100395.41;;;10.34;100.00
72896;BME280;61036;53.224;6.554;2024-03-22T05:16:06;100390.13;;;10.44;100.00
72896;BME280;61036;53.224;6.554;2024-03-22T05:18:31;100385.47;;;10.46;100.00
72896;BME280;61036;53.224;6.554;2024-03-22T05:20:57;100383.53;;;10.37;100.00
72896;BME280;61036;53.224;6.554;2024-03-22T05:23:22;100381.47;;;10.29;100.00
72896;BME280;61036;53.224;6.554;2024-03-22T05:25:48;100391.22;;;10.07;100.00
72896;BME280;61036;53.224;6.554;2024-03-22T05:28:13;100396.41;;;10.33;100.00
72896;BME280;61036;53.224;6.554;2024-03-22T05:30:39;100395.66;;;10.31;100.00
72896;BME280;61036;53.224;6.554;2024-03-22T05:33:04;100405.34;;;10.34;100.00
72896;BME280;61036;53.224;6.554;2024-03-22T05:35:30;100410.63;;;10.35;100.00
72896;BME280;61036;53.224;6.554;2024-03-22T05:37:55;100390.88;;;10.23;100.00
72896;BME280;61036;53.224;6.554;2024-03-22T05:40:21;100379.69;;;10.17;100.00
72896;BME280;61036;53.224;6.554;2024-03-22T05:42:47;100403.59;;;10.10;100.00
72896;BME280;61036;53.224;6.554;2024-03-22T05:45:12;100412.78;;;10.19;100.00
72896;BME280;61036;53.224;6.554;2024-03-22T05:47:38;100439.59;;;10.09;100.00
72896;BME280;61036;53.224;6.554;2024-03-22T05:50:04;100436.53;;;10.25;100.00
72896;BME280;61036;53.224;6.554;2024-03-22T05:52:33;100455.66;;;10.22;100.00
72896;BME280;61036;53.224;6.554;2024-03-22T05:54:58;100409.13;;;10.08;100.00
72896;BME280;61036;53.224;6.554;2024-03-22T05:57:24;100454.78;;;9.99;100.00
72896;BME280;61036;53.224;6.554;2024-03-22T05:59:50;100449.66;;;9.96;100.00
72896;BME280;61036;53.224;6.554;2024-03-22T06:02:15;100492.97;;;9.93;100.00
72896;BME280;61036;53.224;6.554;2024-03-22T06:04:42;100563.00;;;9.93;100.00
72896;BME280;61036;53.224;6.554;2024-03-22T06:07:08;100609.25;;;9.87;100.00
72896;BME280;61036;53.224;6.554;2024-03-22T06:09:33;100530.47;;;10.07;100.00
72896;BME280;61036;53.224;6.554;2024-03-22T06:12:24;100543.50;;;9.89;100.00
72896;BME280;61036;53.224;6.554;2024-03-22T06:14:50;100544.88;;;9.95;100.00
72896;BME280;61036;53.224;6.554;2024-03-22T06:17:16;100555.50;;;9.85;100.00
72896;BME280;61036;53.224;6.554;2024-03-22T06:19:42;100572.66;;;9.95;100.00
72896;BME280;61036;53.224;6.554;2024-03-22T06:22:08;100593.13;;;9.98;100.00
72896;BME280;61036;53.224;6.554;2024-03-22T06:24:33;100608.06;;;9.91;100.00
72896;BME280;61036;53.224;6.554;2024-03-22T06:26:59;100595.59;;;10.01;100.00
72896;BME280;61036;53.224;6.554;2024-03-22T06:29:24;100599.50;;;9.97;100.00
72896;BME280;61036;53.224;6.554;2024-03-22T06:31:49;100583.34;;;9.97;100.00
72896;BME280;61036;53.224;6.554;2024-03-22T06:34:15;100566.72;;;10.03;100.00
72896;BME280;61036;53.224;6.554;2024-03-22T06:36:41;100554.44;;;9.88;100.00
72896;BME280;61036;53.224;6.554;2024-03-22T06:39:07;100529.56;;;9.95;100.00
72896;BME280;61036;53.224;6.554;2024-03-22T06:41:34;100500.34;;;10.02;100.00
72896;BME280;61036;53.224;6.554;2024-03-22T06:43:59;100519.50;;;9.86;100.00
72896;BME280;61036;53.224;6.554;2024-03-22T06:46:25;100504.00;;;10.01;100.00
72896;BME280;61036;53.224;6.554;2024-03-22T06:48:51;100497.72;;;9.78;100.00
72896;BME280;61036;53.224;6.554;2024-03-22T06:51:17;100488.22;;;9.96;100.00
72896;BME280;61036;53.224;6.554;2024-03-22T06:53:42;100499.56;;;9.89;100.00
72896;BME280;61036;53.224;6.554;2024-03-22T06:56:08;100489.78;;;9.88;100.00
72896;BME280;61036;53.224;6.554;2024-03-22T06:58:38;100500.56;;;9.88;100.00
72896;BME280;61036;53.224;6.554;2024-03-22T07:01:04;100488.06;;;9.98;100.00
72896;BME280;61036;53.224;6.554;2024-03-22T07:03:29;100480.97;;;9.85;100.00
72896;BME280;61036;53.224;6.554;2024-03-22T07:05:55;100478.28;;;9.97;100.00
72896;BME280;61036;53.224;6.554;2024-03-22T07:08:21;100492.44;;;9.76;100.00
72896;BME280;61036;53.224;6.554;2024-03-22T07:10:46;100481.44;;;9.79;100.00
72896;BME280;61036;53.224;6.554;2024-03-22T07:13:11;100483.31;;;9.90;100.00
72896;BME280;61036;53.224;6.554;2024-03-22T07:15:37;100486.25;;;9.87;100.00
72896;BME280;61036;53.224;6.554;2024-03-22T07:18:03;100486.25;;;9.87;100.00
72896;BME280;61036;53.224;6.554;2024-03-22T07:20:28;100495.41;;;9.84;100.00
72896;BME280;61036;53.224;6.554;2024-03-22T07:22:54;100519.97;;;9.69;100.00
72896;BME280;61036;53.224;6.554;2024-03-22T07:25:19;100516.34;;;9.92;100.00
72896;BME280;61036;53.224;6.554;2024-03-22T07:27:45;100519.88;;;9.93;100.00
72896;BME280;61036;53.224;6.554;2024-03-22T07:30:11;100518.09;;;10.04;100.00
72896;BME280;61036;53.224;6.554;2024-03-22T07:32:37;100526.41;;;10.01;100.00
72896;BME280;61036;53.224;6.554;2024-03-22T07:35:03;100535.06;;;9.82;100.00
72896;BME280;61036;53.224;6.554;2024-03-22T07:37:28;100553.16;;;9.80;100.00
72896;BME280;61036;53.224;6.554;2024-03-22T07:39:54;100580.03;;;10.04;100.00
72896;BME280;61036;53.224;6.554;2024-03-22T07:42:19;100596.81;;;9.97;100.00
72896;BME280;61036;53.224;6.554;2024-03-22T07:44:46;100608.59;;;10.07;100.00
72896;BME280;61036;53.224;6.554;2024-03-22T07:47:11;100708.44;;;9.93;100.00
72896;BME280;61036;53.224;6.554;2024-03-22T07:49:37;100747.59;;;9.85;100.00
72896;BME280;61036;53.224;6.554;2024-03-22T07:52:02;100781.94;;;9.95;100.00
72896;BME280;61036;53.224;6.554;2024-03-22T07:54:29;100829.28;;;10.10;100.00
72896;BME280;61036;53.224;6.554;2024-03-22T07:56:54;100855.50;;;10.08;100.00
72896;BME280;61036;53.224;6.554;2024-03-22T07:59:20;100887.84;;;9.95;100.00
72896;BME280;61036;53.224;6.554;2024-03-22T08:01:45;100903.56;;;10.01;100.00
72896;BME280;61036;53.224;6.554;2024-03-22T08:04:12;100915.66;;;9.96;100.00
72896;BME280;61036;53.224;6.554;2024-03-22T08:06:37;100964.47;;;9.91;100.00
72896;BME280;61036;53.224;6.554;2024-03-22T08:09:03;100972.34;;;9.81;100.00
72896;BME280;61036;53.224;6.554;2024-03-22T08:11:28;101022.66;;;9.94;100.00
72896;BME280;61036;53.224;6.554;2024-03-22T08:13:54;101096.47;;;9.91;100.00
72896;BME280;61036;53.224;6.554;2024-03-22T08:16:27;101137.88;;;10.03;100.00
72896;BME280;61036;53.224;6.554;2024-03-22T08:18:52;101177.06;;;9.94;100.00
72896;BME280;61036;53.224;6.554;2024-03-22T08:21:18;101183.06;;;9.85;100.00
72896;BME280;61036;53.224;6.554;2024-03-22T08:23:43;101182.91;;;10.01;100.00
72896;BME280;61036;53.224;6.554;2024-03-22T08:26:09;101199.28;;;9.98;100.00
72896;BME280;61036;53.224;6.554;2024-03-22T08:28:34;101233.84;;;9.91;100.00
72896;BME280;61036;53.224;6.554;2024-03-22T08:31:04;101231.84;;;10.07;100.00
72896;BME280;61036;53.224;6.554;2024-03-22T08:33:29;101246.50;;;10.03;100.00
72896;BME280;61036;53.224;6.554;2024-03-22T08:35:55;101266.59;;;10.12;100.00
72896;BME280;61036;53.224;6.554;2024-03-22T08:38:20;101265.16;;;10.06;100.00
72896;BME280;61036;53.224;6.554;2024-03-22T08:40:45;101261.09;;;10.14;100.00
72896;BME280;61036;53.224;6.554;2024-03-22T08:43:11;101233.16;;;10.02;100.00
72896;BME280;61036;53.224;6.554;2024-03-22T08:45:36;101235.53;;;10.06;100.00
72896;BME280;61036;53.224;6.554;2024-03-22T08:48:02;101223.72;;;10.22;100.00
72896;BME280;61036;53.224;6.554;2024-03-22T08:50:27;101203.78;;;10.24;100.00
72896;BME280;61036;53.224;6.554;2024-03-22T08:52:53;101186.59;;;10.00;100.00
72896;BME280;61036;53.224;6.554;2024-03-22T08:55:18;101203.50;;;10.02;100.00
72896;BME280;61036;53.224;6.554;2024-03-22T08:57:44;101214.38;;;10.00;100.00
72896;BME280;61036;53.224;6.554;2024-03-22T09:00:10;101241.72;;;9.94;100.00
72896;BME280;61036;53.224;6.554;2024-03-22T09:02:36;101256.59;;;10.14;100.00
72896;BME280;61036;53.224;6.554;2024-03-22T09:05:04;101244.81;;;10.29;100.00
72896;BME280;61036;53.224;6.554;2024-03-22T09:07:29;101241.94;;;10.18;100.00
72896;BME280;61036;53.224;6.554;2024-03-22T09:09:55;101242.97;;;10.03;100.00
72896;BME280;61036;53.224;6.554;2024-03-22T09:12:21;101249.41;;;10.00;100.00
72896;BME280;61036;53.224;6.554;2024-03-22T09:14:46;101275.25;;;10.17;100.00
72896;BME280;61036;53.224;6.554;2024-03-22T09:17:12;101345.72;;;10.11;100.00
72896;BME280;61036;53.224;6.554;2024-03-22T09:19:37;101384.78;;;10.04;100.00
72896;BME280;61036;53.224;6.554;2024-03-22T09:22:02;101402.00;;;10.16;100.00
72896;BME280;61036;53.224;6.554;2024-03-22T09:24:28;101411.53;;;10.21;100.00
72896;BME280;61036;53.224;6.554;2024-03-22T09:26:54;101415.28;;;10.04;100.00
72896;BME280;61036;53.224;6.554;2024-03-22T09:29:19;101452.34;;;10.01;100.00
72896;BME280;61036;53.224;6.554;2024-03-22T09:31:44;101507.88;;;10.03;100.00
72896;BME280;61036;53.224;6.554;2024-03-22T09:34:12;101562.06;;;10.13;100.00
72896;BME280;61036;53.224;6.554;2024-03-22T09:36:38;101582.16;;;10.07;100.00
72896;BME280;61036;53.224;6.554;2024-03-22T09:39:04;101576.72;;;10.09;100.00
72896;BME280;61036;53.224;6.554;2024-03-22T09:41:32;101601.81;;;10.10;100.00
72896;BME280;61036;53.224;6.554;2024-03-22T09:43:58;101681.84;;;10.23;100.00
72896;BME280;61036;53.224;6.554;2024-03-22T09:46:26;101681.88;;;10.07;100.00
72896;BME280;61036;53.224;6.554;2024-03-22T09:48:53;101696.16;;;10.10;100.00
72896;BME280;61036;53.224;6.554;2024-03-22T09:51:20;101705.34;;;10.21;100.00
72896;BME280;61036;53.224;6.554;2024-03-22T09:53:49;101700.19;;;10.17;100.00
72896;BME280;61036;53.224;6.554;2024-03-22T09:56:15;101707.97;;;10.07;100.00
72896;BME280;61036;53.224;6.554;2024-03-22T09:58:44;101710.94;;;10.02;100.00
72896;BME280;61036;53.224;6.554;2024-03-22T10:01:10;101709.38;;;10.14;100.00
72896;BME280;61036;53.224;6.554;2024-03-22T10:03:37;101707.03;;;10.08;100.00
72896;BME280;61036;53.224;6.554;2024-03-22T10:06:05;101704.41;;;10.06;100.00
72896;BME280;61036;53.224;6.554;2024-03-22T10:08:31;101708.41;;;10.15;100.00
72896;BME280;61036;53.224;6.554;2024-03-22T10:10:57;101703.69;;;10.19;100.00
72896;BME280;61036;53.224;6.554;2024-03-22T10:13:23;101683.50;;;10.26;100.00
72896;BME280;61036;53.224;6.554;2024-03-22T10:15:48;101692.41;;;10.42;100.00
72896;BME280;61036;53.224;6.554;2024-03-22T10:18:14;101649.75;;;10.49;100.00
72896;BME280;61036;53.224;6.554;2024-03-22T10:20:40;101645.13;;;10.37;100.00
72896;BME280;61036;53.224;6.554;2024-03-22T10:23:07;101617.75;;;10.28;100.00
72896;BME280;61036;53.224;6.554;2024-03-22T10:25:34;101611.25;;;10.33;100.00
72896;BME280;61036;53.224;6.554;2024-03-22T10:28:00;101599.59;;;10.46;100.00
72896;BME280;61036;53.224;6.554;2024-03-22T10:30:26;101567.44;;;10.29;100.00
72896;BME280;61036;53.224;6.554;2024-03-22T10:32:52;101569.88;;;10.18;100.00
72896;BME280;61036;53.224;6.554;2024-03-22T10:35:18;101561.16;;;10.43;100.00
72896;BME280;61036;53.224;6.554;2024-03-22T10:37:44;101548.47;;;10.45;100.00
72896;BME280;61036;53.224;6.554;2024-03-22T10:40:10;101521.19;;;10.49;100.00
72896;BME280;61036;53.224;6.554;2024-03-22T10:42:40;101509.66;;;10.33;100.00
72896;BME280;61036;53.224;6.554;2024-03-22T10:45:08;101511.84;;;10.12;100.00
72896;BME280;61036;53.224;6.554;2024-03-22T10:47:35;101510.31;;;10.37;100.00
72896;BME280;61036;53.224;6.554;2024-03-22T10:50:07;101499.84;;;10.32;100.00
72896;BME280;61036;53.224;6.554;2024-03-22T10:52:37;101479.13;;;10.33;100.00
72896;BME280;61036;53.224;6.554;2024-03-22T10:55:06;101469.84;;;10.22;100.00
72896;BME280;61036;53.224;6.554;2024-03-22T10:57:32;101508.22;;;10.27;100.00
72896;BME280;61036;53.224;6.554;2024-03-22T11:00:09;101517.94;;;10.30;100.00
72896;BME280;61036;53.224;6.554;2024-03-22T11:02:38;101538.19;;;10.79;100.00
72896;BME280;61036;53.224;6.554;2024-03-22T11:05:04;101488.31;;;10.71;100.00
72896;BME280;61036;53.224;6.554;2024-03-22T11:07:31;101405.34;;;10.75;100.00
72896;BME280;61036;53.224;6.554;2024-03-22T11:09:57;101386.88;;;10.42;100.00
72896;BME280;61036;53.224;6.554;2024-03-22T11:12:24;101390.72;;;10.65;100.00
72896;BME280;61036;53.224;6.554;2024-03-22T11:14:50;101394.31;;;10.65;100.00
72896;BME280;61036;53.224;6.554;2024-03-22T11:17:17;101382.38;;;10.55;100.00
72896;BME280;61036;53.224;6.554;2024-03-22T11:19:42;101369.22;;;10.78;100.00
72896;BME280;61036;53.224;6.554;2024-03-22T11:22:08;101342.81;;;10.56;100.00
72896;BME280;61036;53.224;6.554;2024-03-22T11:24:33;101317.63;;;10.82;100.00
72896;BME280;61036;53.224;6.554;2024-03-22T11:26:59;101301.34;;;10.84;100.00
72896;BME280;61036;53.224;6.554;2024-03-22T11:29:25;101279.91;;;10.55;100.00
72896;BME280;61036;53.224;6.554;2024-03-22T11:31:50;101290.63;;;10.29;100.00
72896;BME280;61036;53.224;6.554;2024-03-22T11:34:15;101312.25;;;10.42;100.00
72896;BME280;61036;53.224;6.554;2024-03-22T11:36:41;101316.50;;;10.59;100.00
72896;BME280;61036;53.224;6.554;2024-03-22T11:39:06;101330.00;;;10.18;100.00
72896;BME280;61036;53.224;6.554;2024-03-22T11:41:32;101351.09;;;10.52;100.00
72896;BME280;61036;53.224;6.554;2024-03-22T11:44:00;101343.41;;;10.73;100.00
72896;BME280;61036;53.224;6.554;2024-03-22T11:46:26;101325.09;;;10.51;100.00
72896;BME280;61036;53.224;6.554;2024-03-22T11:48:55;101323.69;;;10.46;100.00
72896;BME280;61036;53.224;6.554;2024-03-22T11:51:21;101327.34;;;10.45;100.00
72896;BME280;61036;53.224;6.554;2024-03-22T11:53:52;101321.78;;;10.61;100.00
72896;BME280;61036;53.224;6.554;2024-03-22T11:56:20;101309.25;;;10.47;100.00
72896;BME280;61036;53.224;6.554;2024-03-22T11:58:48;101279.78;;;10.44;100.00
72896;BME280;61036;53.224;6.554;2024-03-22T12:01:15;101241.31;;;10.55;100.00
72896;BME280;61036;53.224;6.554;2024-03-22T12:03:43;101174.94;;;10.26;100.00
72896;BME280;61036;53.224;6.554;2024-03-22T12:06:10;101158.88;;;10.11;100.00
72896;BME280;61036;53.224;6.554;2024-03-22T12:08:36;101154.13;;;10.01;100.00
72896;BME280;61036;53.224;6.554;2024-03-22T12:11:03;101134.63;;;10.11;100.00
72896;BME280;61036;53.224;6.554;2024-03-22T12:13:29;101117.19;;;10.16;100.00
72896;BME280;61036;53.224;6.554;2024-03-22T12:15:55;101104.56;;;10.17;100.00
72896;BME280;61036;53.224;6.554;2024-03-22T12:18:21;101094.25;;;10.23;100.00
72896;BME280;61036;53.224;6.554;2024-03-22T12:20:47;101077.84;;;10.14;100.00
72896;BME280;61036;53.224;6.554;2024-03-22T12:23:12;101078.53;;;10.56;100.00
72896;BME280;61036;53.224;6.554;2024-03-22T12:25:37;100991.50;;;10.53;100.00
72896;BME280;61036;53.224;6.554;2024-03-22T12:28:03;100892.25;;;10.83;100.00
72896;BME280;61036;53.224;6.554;2024-03-22T12:30:29;100781.16;;;10.89;100.00
72896;BME280;61036;53.224;6.554;2024-03-22T12:32:55;100715.97;;;11.06;100.00
72896;BME280;61036;53.224;6.554;2024-03-22T12:35:21;100689.28;;;10.57;100.00